Time;durP1;ratioP1;P1;durP2;ratioP2;P2;SDS_P1;SDS_P2;PMS_P1;PMS_P2;Temp;Humidity;BMP_temperature;BMP_pressure;BME280_temperature;BME280_humidity;BME280_pressure;Samples;Min_cycle;Max_cycle;Signal;HPM_P1;HPM_P2
2023/12/18 00:01:25;;;;;;;23.17;10.18;;;;;;;7.01;100.00;102834.22;4906595;29;20529;-74
2023/12/18 00:03:52;;;;;;;25.55;9.43;;;;;;;7.02;100.00;102830.53;4935570;28;20121;-75
2023/12/18 00:06:18;;;;;;;23.08;9.63;;;;;;;7.00;100.00;102824.56;4939638;28;20035;-73
2023/12/18 00:08:47;;;;;;;22.65;8.48;;;;;;;6.99;100.00;102822.94;4940563;28;20758;-74
2023/12/18 00:11:14;;;;;;;20.33;9.68;;;;;;;6.97;100.00;102820.44;4923286;28;20035;-74
2023/12/18 00:13:41;;;;;;;23.48;8.77;;;;;;;6.98;100.00;102816.78;4936405;28;20772;-73
2023/12/18 00:16:07;;;;;;;22.20;10.45;;;;;;;6.99;100.00;102812.28;4924150;28;20042;-75
2023/12/18 00:18:32;;;;;;;29.55;10.07;;;;;;;6.97;100.00;102807.13;4907518;28;20122;-73
2023/12/18 00:20:58;;;;;;;17.95;9.15;;;;;;;6.96;100.00;102805.47;4924695;29;20039;-74
2023/12/18 00:23:27;;;;;;;20.92;9.32;;;;;;;6.98;100.00;102805.31;4918048;28;20036;-75
2023/12/18 00:25:55;;;;;;;20.27;8.70;;;;;;;6.95;100.00;102795.03;4935729;28;20139;-75
2023/12/18 00:28:21;;;;;;;29.67;11.52;;;;;;;6.95;100.00;102805.69;4903496;29;20035;-76
2023/12/18 00:30:47;;;;;;;;;;;;;;;6.97;100.00;102803.63;4908767;28;20142;-74
2023/12/18 00:33:18;;;;;;;16.35;8.13;;;;;;;6.97;100.00;102808.97;4923063;29;20452;-74
2023/12/18 00:35:47;;;;;;;19.80;8.20;;;;;;;6.96;100.00;102808.13;4908505;28;21013;-74
2023/12/18 00:38:15;;;;;;;22.77;9.55;;;;;;;6.93;100.00;102797.06;4926082;29;20122;-74
2023/12/18 00:40:41;;;;;;;24.75;9.90;;;;;;;6.95;100.00;102797.69;4911189;28;20521;-75
2023/12/18 00:43:07;;;;;;;20.58;9.93;;;;;;;6.95;100.00;102789.69;4928161;29;20039;-75
2023/12/18 00:45:33;;;;;;;17.58;9.13;;;;;;;6.94;100.00;102775.56;4940131;28;20090;-75
2023/12/18 00:47:59;;;;;;;23.20;10.07;;;;;;;6.94;100.00;102772.91;4912633;29;20043;-74
2023/12/18 00:50:24;;;;;;;28.08;10.48;;;;;;;6.94;100.00;102769.41;4924299;29;20039;-75
2023/12/18 00:52:52;;;;;;;;;;;;;;;6.94;100.00;102766.75;4927062;28;20597;-75
2023/12/18 00:55:18;;;;;;;21.02;10.13;;;;;;;6.94;100.00;102758.75;4926202;29;19918;-74
2023/12/18 00:57:44;;;;;;;20.00;8.55;;;;;;;6.93;100.00;102749.94;4904952;28;20035;-74
2023/12/18 01:00:10;;;;;;;21.45;9.25;;;;;;;6.93;100.00;102741.13;4912937;29;20090;-74
2023/12/18 01:02:36;;;;;;;20.73;9.75;;;;;;;6.93;100.00;102741.13;4911462;28;20083;-75
2023/12/18 01:05:01;;;;;;;26.08;9.70;;;;;;;6.90;100.00;102739.66;4927294;29;20106;-73
2023/12/18 01:07:29;;;;;;;21.95;9.20;;;;;;;6.94;100.00;102751.59;4928375;29;20038;-75
2023/12/18 01:09:58;;;;;;;18.80;8.43;;;;;;;6.97;100.00;102750.34;4911664;29;20156;-74
2023/12/18 01:12:27;;;;;;;20.83;10.32;;;;;;;6.96;100.00;102749.53;4928833;28;20035;-74
2023/12/18 01:14:53;;;;;;;19.20;8.80;;;;;;;6.96;100.00;102751.38;4926745;28;20036;-75
2023/12/18 01:17:19;;;;;;;21.10;9.57;;;;;;;6.96;100.00;102754.03;4919022;29;20074;-74
2023/12/18 01:19:44;;;;;;;23.27;9.35;;;;;;;6.95;100.00;102747.91;4907347;28;20158;-73
2023/12/18 01:22:10;;;;;;;21.30;8.88;;;;;;;6.97;100.00;102731.72;4911344;29;20035;-74
2023/12/18 01:24:36;;;;;;;26.50;9.55;;;;;;;6.99;100.00;102738.50;4931929;28;20073;-73
2023/12/18 01:27:02;;;;;;;22.48;9.15;;;;;;;7.01;100.00;102740.97;4940231;28;20752;-76
2023/12/18 01:29:29;;;;;;;20.85;8.98;;;;;;;7.03;100.00;102744.25;4933534;28;20067;-72
2023/12/18 01:31:55;;;;;;;27.20;8.90;;;;;;;7.02;100.00;102745.28;4923669;28;20103;-74
2023/12/18 01:34:21;;;;;;;21.30;9.52;;;;;;;7.03;100.00;102741.59;4938420;28;20040;-73
2023/12/18 01:36:47;;;;;;;22.25;9.90;;;;;;;7.03;100.00;102745.06;4921642;28;20035;-74
2023/12/18 01:39:13;;;;;;;20.42;9.57;;;;;;;7.01;100.00;102741.78;4920658;29;20130;-76
2023/12/18 01:41:39;;;;;;;20.80;9.10;;;;;;;7.03;100.00;102739.75;4906410;28;20463;-74
2023/12/18 01:44:05;;;;;;;19.70;9.18;;;;;;;7.05;100.00;102734.25;4940445;28;20041;-73
2023/12/18 01:46:34;;;;;;;21.83;9.07;;;;;;;7.05;100.00;102736.91;4921526;28;20047;-73
2023/12/18 01:49:01;;;;;;;23.95;9.25;;;;;;;7.02;100.00;102734.63;4944012;28;20094;-72
2023/12/18 01:51:28;;;;;;;21.35;9.52;;;;;;;7.03;100.00;102728.25;4925849;28;20031;-74
2023/12/18 01:54:00;;;;;;;26.13;9.30;;;;;;;7.03;100.00;102733.59;4905282;28;20039;-74
2023/12/18 01:56:30;;;;;;;19.08;9.85;;;;;;;7.03;100.00;102738.91;4924759;28;20043;-75
2023/12/18 01:58:59;;;;;;;20.60;8.80;;;;;;;7.02;100.00;102737.28;4941380;28;20035;-74
2023/12/18 02:01:26;;;;;;;24.90;9.88;;;;;;;7.04;100.00;102740.56;4939834;28;20528;-73
2023/12/18 02:03:53;;;;;;;21.33;9.45;;;;;;;7.03;100.00;102730.94;4937632;28;20066;-74
2023/12/18 02:06:19;;;;;;;22.65;9.40;;;;;;;7.01;100.00;102725.81;4944497;28;20500;-75
2023/12/18 02:08:45;;;;;;;20.20;10.13;;;;;;;7.02;100.00;102724.78;4923452;28;20062;-74
2023/12/18 02:11:11;;;;;;;17.42;9.95;;;;;;;7.04;100.00;102735.22;4917343;29;20059;-75
2023/12/18 02:13:39;;;;;;;19.65;10.05;;;;;;;7.02;100.00;102738.09;4938713;28;20043;-74
2023/12/18 02:16:05;;;;;;;25.38;10.95;;;;;;;7.04;100.00;102738.72;4928932;28;20046;-74
2023/12/18 02:18:31;;;;;;;20.50;10.50;;;;;;;7.00;100.00;102739.31;4913987;29;20035;-74
2023/12/18 02:20:57;;;;;;;24.38;10.38;;;;;;;7.01;100.00;102738.31;4925516;28;20036;-74
2023/12/18 02:23:24;;;;;;;22.83;10.20;;;;;;;7.02;100.00;102729.28;4921276;29;20035;-74
2023/12/18 02:25:50;;;;;;;20.83;10.38;;;;;;;7.00;100.00;102726.81;4924616;28;20248;-74
2023/12/18 02:28:17;;;;;;;21.30;9.45;;;;;;;7.02;100.00;102716.78;4937214;28;20268;-75
2023/12/18 02:30:43;;;;;;;27.98;10.57;;;;;;;6.99;100.00;102711.88;4904238;28;20129;-75
2023/12/18 02:33:08;;;;;;;20.65;9.70;;;;;;;7.04;100.00;102724.56;4917857;29;20047;-73
2023/12/18 02:35:37;;;;;;;22.88;9.60;;;;;;;7.05;100.00;102712.91;4908348;29;20047;-72
2023/12/18 02:38:03;;;;;;;25.00;9.40;;;;;;;7.07;100.00;102702.88;4935210;28;20043;-74
2023/12/18 02:40:29;;;;;;;19.50;9.05;;;;;;;7.06;100.00;102698.56;4896348;29;20054;-74
2023/12/18 02:42:55;;;;;;;20.08;9.20;;;;;;;7.04;100.00;102692.59;4919259;28;20146;-73
2023/12/18 02:45:21;;;;;;;19.45;10.65;;;;;;;7.04;100.00;102693.41;4922343;28;20034;-73
2023/12/18 02:47:46;;;;;;;22.13;10.00;;;;;;;7.05;100.00;102686.28;4912792;28;20031;-74
2023/12/18 02:50:13;;;;;;;;;;;;;;;7.05;100.00;102688.94;4922412;28;20105;-73
2023/12/18 02:52:39;;;;;;;19.98;9.18;;;;;;;7.05;100.00;102688.94;4924690;28;19922;-74
2023/12/18 02:55:05;;;;;;;19.33;9.45;;;;;;;7.05;100.00;102688.94;4922416;28;20044;-73
2023/12/18 02:57:30;;;;;;;22.35;10.75;;;;;;;7.07;100.00;102693.03;4921904;29;20057;-74
2023/12/18 02:59:56;;;;;;;26.90;10.20;;;;;;;7.07;100.00;102692.22;4907058;28;20055;-73
2023/12/18 03:02:22;;;;;;;26.20;10.95;;;;;;;7.07;100.00;102692.22;4924994;29;20043;-72
2023/12/18 03:04:53;;;;;;;19.98;10.63;;;;;;;7.04;100.00;102671.28;4939544;28;20043;-74
2023/12/18 03:07:18;;;;;;;20.58;9.60;;;;;;;7.04;100.00;102679.28;4928571;29;20039;-73
2023/12/18 03:09:44;;;;;;;26.45;10.65;;;;;;;7.01;100.00;102679.69;4929358;28;20393;-73
2023/12/18 03:12:10;;;;;;;22.58;10.32;;;;;;;7.01;100.00;102682.34;4922563;29;20050;-74
2023/12/18 03:14:35;;;;;;;25.13;11.30;;;;;;;7.01;100.00;102685.84;4925197;28;20130;-73
2023/12/18 03:17:01;;;;;;;27.65;10.07;;;;;;;7.05;100.00;102688.94;4925303;28;20043;-74
2023/12/18 03:19:26;;;;;;;23.75;10.02;;;;;;;7.03;100.00;102690.97;4922330;29;20039;-73
2023/12/18 03:21:52;;;;;;;20.95;9.57;;;;;;;7.02;100.00;102689.31;4909079;28;20417;-75
2023/12/18 03:24:18;;;;;;;21.27;10.52;;;;;;;7.04;100.00;102688.09;4921065;29;20497;-74
2023/12/18 03:26:43;;;;;;;19.40;9.80;;;;;;;7.02;100.00;102692.81;4921340;28;20047;-72
2023/12/18 03:29:09;;;;;;;20.05;11.05;;;;;;;7.02;100.00;102687.47;4923004;29;20045;-73
2023/12/18 03:31:35;;;;;;;25.92;11.27;;;;;;;7.00;100.00;102696.69;4938701;28;20279;-74
2023/12/18 03:34:00;;;;;;;26.30;11.07;;;;;;;6.97;100.00;102692.56;4904621;28;20118;-73
2023/12/18 03:36:27;;;;;;;27.10;10.80;;;;;;;6.98;100.00;102698.75;4924277;28;20517;-74
2023/12/18 03:38:52;;;;;;;23.40;11.40;;;;;;;6.97;100.00;102702.41;4940091;28;20149;-73
2023/12/18 03:41:18;;;;;;;21.77;10.43;;;;;;;6.94;100.00;102710.81;4908545;29;20043;-75
2023/12/18 03:43:44;;;;;;;22.05;12.05;;;;;;;6.93;100.00;102706.50;4920706;28;20050;-73
2023/12/18 03:46:10;;;;;;;22.98;11.80;;;;;;;6.95;100.00;102715.94;4937397;28;20117;-74
2023/12/18 03:48:36;;;;;;;23.60;11.23;;;;;;;6.93;100.00;102714.50;4937551;28;20114;-74
2023/12/18 03:51:03;;;;;;;25.55;11.23;;;;;;;6.90;100.00;102712.22;4935874;28;20042;-74
2023/12/18 03:53:30;;;;;;;21.92;10.77;;;;;;;6.89;100.00;102699.91;4921015;28;20047;-73
2023/12/18 03:55:58;;;;;;;28.90;12.25;;;;;;;6.88;100.00;102703.59;4942699;28;20043;-74
2023/12/18 03:58:24;;;;;;;24.30;11.88;;;;;;;6.84;100.00;102704.00;4924757;29;20040;-73
2023/12/18 04:00:50;;;;;;;25.33;11.95;;;;;;;6.84;100.00;102689.84;4935866;28;20050;-73
2023/12/18 04:03:16;;;;;;;21.08;10.88;;;;;;;6.86;100.00;102695.00;4932140;28;20056;-76
2023/12/18 04:05:42;;;;;;;18.58;11.57;;;;;;;6.88;100.00;102698.28;4923192;28;20039;-76
2023/12/18 04:08:08;;;;;;;22.63;11.80;;;;;;;6.86;100.00;102702.97;4928745;28;20084;-76
2023/12/18 04:10:34;;;;;;;23.95;12.60;;;;;;;6.83;100.00;102702.34;4922869;29;20494;-76
2023/12/18 04:13:00;;;;;;;25.63;13.38;;;;;;;6.82;100.00;102705.19;4944762;28;20031;-76
2023/12/18 04:15:26;;;;;;;28.33;12.85;;;;;;;6.83;100.00;102702.34;4929686;29;20126;-76
2023/12/18 04:17:52;;;;;;;25.30;13.30;;;;;;;6.83;100.00;102702.34;4943542;28;20200;-76
2023/12/18 04:20:19;;;;;;;25.77;12.30;;;;;;;6.84;100.00;102692.50;4930187;29;20036;-76
2023/12/18 04:22:44;;;;;;;22.48;11.60;;;;;;;6.83;100.00;102702.34;4913161;28;20038;-76
2023/12/18 04:25:10;;;;;;;24.17;11.80;;;;;;;6.83;100.00;102707.66;4946643;28;20107;-75
2023/12/18 04:27:36;;;;;;;25.30;13.35;;;;;;;6.83;100.00;102699.69;4927472;29;20118;-75
2023/12/18 04:30:02;;;;;;;21.65;11.65;;;;;;;6.81;100.00;102692.91;4946141;28;20390;-77
2023/12/18 04:32:30;;;;;;;24.20;12.45;;;;;;;6.82;100.00;102690.03;4908758;29;20031;-76
2023/12/18 04:34:56;;;;;;;26.23;12.32;;;;;;;6.79;100.00;102693.13;4910567;28;20049;-76
2023/12/18 04:37:22;;;;;;;26.42;14.45;;;;;;;6.80;100.00;102696.59;4943531;28;20059;-78
2023/12/18 04:39:48;;;;;;;26.02;13.35;;;;;;;6.80;100.00;102693.94;4926451;28;20069;-77
2023/12/18 04:42:13;;;;;;;25.80;13.32;;;;;;;6.75;100.00;102686.53;4940897;28;20073;-77
2023/12/18 04:44:39;;;;;;;24.25;13.27;;;;;;;6.77;100.00;102689.84;4926040;28;20502;-77
2023/12/18 04:47:05;;;;;;;24.92;13.02;;;;;;;6.78;100.00;102691.47;4929682;28;20044;-76
2023/12/18 04:49:30;;;;;;;24.55;13.55;;;;;;;6.79;100.00;102694.97;4942987;28;20024;-76
2023/12/18 04:51:56;;;;;;;25.02;14.75;;;;;;;6.79;100.00;102690.44;4927696;28;20511;-77
2023/12/18 04:54:22;;;;;;;24.55;11.82;;;;;;;6.78;100.00;102699.47;4916325;29;20035;-77
2023/12/18 04:56:48;;;;;;;21.33;11.38;;;;;;;6.77;100.00;102697.81;4932553;28;20509;-77
2023/12/18 04:59:14;;;;;;;26.30;13.52;;;;;;;6.76;100.00;102701.47;4910154;29;20036;-75
2023/12/18 05:01:39;;;;;;;26.67;14.38;;;;;;;6.74;100.00;102692.88;4944127;28;20191;-76
2023/12/18 05:04:05;;;;;;;;;;;;;;;6.75;100.00;102696.34;4942060;28;20241;-76
2023/12/18 05:06:31;;;;;;;26.20;12.77;;;;;;;6.72;100.00;102691.44;4948189;28;19972;-78
2023/12/18 05:08:57;;;;;;;24.13;13.32;;;;;;;6.70;100.00;102677.47;4923926;28;20521;-77
2023/12/18 05:11:24;;;;;;;31.30;12.93;;;;;;;6.69;100.00;102684.66;4919624;29;20039;-78
2023/12/18 05:13:51;;;;;;;23.52;12.00;;;;;;;6.69;100.00;102689.97;4926354;28;20152;-77
2023/12/18 05:16:20;;;;;;;23.75;12.32;;;;;;;6.70;100.00;102683.63;4943712;28;20043;-78
2023/12/18 05:18:47;;;;;;;23.35;12.75;;;;;;;6.69;100.00;102681.16;4902267;29;20082;-77
2023/12/18 05:21:13;;;;;;;25.73;13.10;;;;;;;6.69;100.00;102686.50;4943951;28;20039;-78
2023/12/18 05:23:39;;;;;;;25.73;13.02;;;;;;;6.67;100.00;102692.00;4908806;28;20051;-77
2023/12/18 05:26:05;;;;;;;27.90;13.00;;;;;;;6.67;100.00;102694.69;4943414;28;20046;-76
2023/12/18 05:28:31;;;;;;;23.23;13.63;;;;;;;6.65;100.00;102699.38;4909171;29;20047;-77
2023/12/18 05:30:56;;;;;;;27.70;13.60;;;;;;;6.64;100.00;102703.06;4927262;28;20501;-77
2023/12/18 05:33:22;;;;;;;22.90;13.95;;;;;;;6.65;100.00;102699.38;4928263;29;20074;-75
2023/12/18 05:35:48;;;;;;;;;;;;;;;6.61;100.00;102707.94;4910138;28;20027;-75
2023/12/18 05:38:14;;;;;;;26.38;13.02;;;;;;;6.61;100.00;102698.13;4932610;28;19944;-78
2023/12/18 05:40:40;;;;;;;23.85;12.65;;;;;;;6.61;100.00;102703.44;4929517;29;20125;-76
2023/12/18 05:43:07;;;;;;;23.83;13.30;;;;;;;6.59;100.00;102694.84;4943626;28;20809;-78
2023/12/18 05:45:33;;;;;;;22.65;13.15;;;;;;;6.56;100.00;102682.72;4947816;28;20058;-77
2023/12/18 05:47:59;;;;;;;26.55;13.57;;;;;;;6.58;100.00;102693.19;4912252;28;20139;-75
2023/12/18 05:50:26;;;;;;;24.38;14.70;;;;;;;6.57;100.00;102694.22;4927227;29;20046;-78
2023/12/18 05:52:52;;;;;;;25.27;13.48;;;;;;;6.56;100.00;102692.56;4928113;28;20031;-77
2023/12/18 05:55:18;;;;;;;22.08;13.35;;;;;;;6.53;100.00;102700.94;4912173;29;20041;-75
2023/12/18 05:57:44;;;;;;;27.63;15.43;;;;;;;6.53;100.00;102714.25;4912390;29;20039;-77
2023/12/18 06:00:10;;;;;;;26.77;14.18;;;;;;;6.55;100.00;102706.88;4928766;28;20754;-78
2023/12/18 06:02:36;;;;;;;26.77;14.85;;;;;;;6.56;100.00;102711.19;4928267;29;20535;-76
2023/12/18 06:05:03;;;;;;;26.10;13.93;;;;;;;6.56;100.00;102705.84;4930009;28;20039;-77
2023/12/18 06:07:29;;;;;;;23.60;14.75;;;;;;;6.57;100.00;102707.53;4945237;28;20035;-78
2023/12/18 06:09:55;;;;;;;27.00;14.65;;;;;;;6.53;100.00;102716.91;4927114;28;20035;-78
2023/12/18 06:12:22;;;;;;;26.08;14.73;;;;;;;6.53;100.00;102714.25;4948831;28;20039;-76
2023/12/18 06:14:48;;;;;;;27.48;14.27;;;;;;;6.53;100.00;102722.22;4925042;29;20039;-79
2023/12/18 06:17:14;;;;;;;25.80;15.45;;;;;;;6.53;100.00;102732.88;4928244;28;20594;-77
2023/12/18 06:19:40;;;;;;;32.30;15.50;;;;;;;6.52;100.00;102732.06;4940349;28;20153;-79
2023/12/18 06:22:06;;;;;;;31.25;15.90;;;;;;;6.51;100.00;102724.28;4928871;28;20093;-77
2023/12/18 06:24:32;;;;;;;;;;;;;;;6.51;100.00;102742.91;4939992;28;20153;-78
2023/12/18 06:26:58;;;;;;;26.60;13.43;;;;;;;6.51;100.00;102729.59;4942797;28;20005;-77
2023/12/18 06:29:26;;;;;;;32.88;16.15;;;;;;;6.48;100.00;102729.97;4897431;28;20449;-80
2023/12/18 06:31:51;;;;;;;33.78;16.23;;;;;;;6.50;100.00;102731.44;4906597;29;20866;-78
2023/12/18 06:34:17;;;;;;;33.63;17.52;;;;;;;6.49;100.00;102740.41;4907676;29;20125;-79
2023/12/18 06:36:43;;;;;;;33.50;16.88;;;;;;;6.46;100.00;102732.00;4928191;29;20405;-78
2023/12/18 06:39:10;;;;;;;29.70;17.00;;;;;;;6.43;100.00;102732.38;4942632;28;20437;-79
2023/12/18 06:41:36;;;;;;;32.70;16.33;;;;;;;6.46;100.00;102737.34;4944681;28;20174;-77
2023/12/18 06:44:03;;;;;;;32.85;16.88;;;;;;;6.47;100.00;102737.13;4942038;28;20525;-77
2023/12/18 06:46:29;;;;;;;32.53;17.83;;;;;;;6.46;100.00;102737.34;4942503;28;20050;-75
2023/12/18 06:48:56;;;;;;;35.85;16.35;;;;;;;6.47;100.00;102737.13;4944564;28;20023;-75
2023/12/18 06:51:22;;;;;;;32.38;15.57;;;;;;;6.47;100.00;102733.66;4928298;29;20047;-74
2023/12/18 06:53:48;;;;;;;37.28;17.15;;;;;;;6.46;100.00;102732.84;4908567;29;20676;-77
2023/12/18 06:56:13;;;;;;;35.22;17.40;;;;;;;6.46;100.00;102726.69;4912151;28;20135;-75
2023/12/18 06:58:39;;;;;;;35.28;16.48;;;;;;;6.47;100.00;102729.16;4911428;29;20039;-75
2023/12/18 07:01:05;;;;;;;36.00;16.73;;;;;;;6.48;100.00;102735.28;4942293;28;20035;-76
2023/12/18 07:03:31;;;;;;;32.28;16.00;;;;;;;6.48;100.00;102730.78;4912907;29;20039;-77
2023/12/18 07:05:58;;;;;;;34.92;17.83;;;;;;;6.49;100.00;102731.63;4925753;28;20101;-76
2023/12/18 07:08:23;;;;;;;39.40;17.50;;;;;;;6.50;100.00;102728.78;4926714;29;20624;-76
2023/12/18 07:10:49;;;;;;;36.45;17.65;;;;;;;6.47;100.00;102729.16;4946274;28;20027;-76
2023/12/18 07:13:15;;;;;;;33.50;18.92;;;;;;;6.46;100.00;102732.00;4922976;28;20120;-75
2023/12/18 07:15:41;;;;;;;37.50;18.45;;;;;;;6.48;100.00;102736.13;4945616;28;20046;-77
2023/12/18 07:18:07;;;;;;;40.17;17.67;;;;;;;6.50;100.00;102750.06;4910851;28;20194;-76
2023/12/18 07:20:33;;;;;;;33.60;16.17;;;;;;;6.50;100.00;102743.91;4902850;29;20044;-77
2023/12/18 07:22:59;;;;;;;37.35;16.83;;;;;;;6.50;100.00;102738.56;4908957;28;20039;-75
2023/12/18 07:25:25;;;;;;;35.15;17.25;;;;;;;6.50;100.00;102743.91;4924899;29;20048;-76
2023/12/18 07:27:51;;;;;;;36.33;17.58;;;;;;;6.51;100.00;102746.41;4924726;28;20148;-75
2023/12/18 07:30:17;;;;;;;38.70;17.83;;;;;;;6.53;100.00;102755.00;4925882;28;20042;-76
2023/12/18 07:32:43;;;;;;;38.92;18.38;;;;;;;6.52;100.00;102757.88;4925456;29;20862;-76
2023/12/18 07:35:11;;;;;;;34.22;16.52;;;;;;;6.49;100.00;102764.38;4924195;28;20043;-75
2023/12/18 07:37:36;;;;;;;35.38;17.27;;;;;;;6.52;100.00;102757.88;4915763;29;20046;-76
2023/12/18 07:40:03;;;;;;;36.50;19.05;;;;;;;6.49;100.00;102748.41;4942860;28;20118;-75
2023/12/18 07:42:30;;;;;;;;;;;;;;;6.53;100.00;102759.50;4927532;29;20050;-75
2023/12/18 07:44:55;;;;;;;35.55;15.35;;;;;;;6.53;100.00;102748.84;4941855;28;20065;-74
2023/12/18 07:47:21;;;;;;;32.05;16.52;;;;;;;6.54;100.00;102756.63;4922982;28;20130;-75
2023/12/18 07:49:48;;;;;;;39.88;17.80;;;;;;;6.54;100.00;102751.31;4931895;29;20149;-75
2023/12/18 07:52:15;;;;;;;39.30;18.60;;;;;;;6.53;100.00;102764.81;4929200;28;20042;-76
2023/12/18 07:54:42;;;;;;;38.78;16.95;;;;;;;6.50;100.00;102755.41;4928877;23;20089;31
2023/12/18 07:57:08;;;;;;;40.53;19.25;;;;;;;6.55;100.00;102757.47;4881099;29;21044;-70
2023/12/18 07:59:39;;;;;;;35.17;18.80;;;;;;;6.53;100.00;102760.31;4896088;29;20033;-70
2023/12/18 08:02:09;;;;;;;37.72;18.30;;;;;;;6.54;100.00;102769.13;4920647;29;20076;-70
2023/12/18 08:04:38;;;;;;;41.00;18.77;;;;;;;6.52;100.00;102757.88;4905238;29;20383;-72
2023/12/18 08:07:04;;;;;;;42.50;17.42;;;;;;;6.52;100.00;102768.50;4919843;29;20036;-72
2023/12/18 08:09:30;;;;;;;39.30;17.70;;;;;;;6.51;100.00;102766.88;4885539;29;20462;-71
2023/12/18 08:11:56;;;;;;;42.75;20.60;;;;;;;6.49;100.00;102755.56;4897484;29;20135;-70
2023/12/18 08:14:22;;;;;;;42.92;20.33;;;;;;;6.49;100.00;102760.91;4902832;29;20048;-71
2023/12/18 08:16:49;;;;;;;40.15;19.40;;;;;;;6.48;100.00;102762.72;4890461;29;20052;-72
2023/12/18 08:19:15;;;;;;;39.30;18.85;;;;;;;6.52;100.00;102773.84;4908671;29;20037;-70
2023/12/18 08:21:41;;;;;;;40.53;18.13;;;;;;;6.54;100.00;102766.47;4899305;29;20522;-70
2023/12/18 08:24:07;;;;;;;47.40;20.98;;;;;;;6.53;100.00;102765.66;4901412;29;20051;-70
2023/12/18 08:26:33;;;;;;;38.35;18.30;;;;;;;6.54;100.00;102756.63;4902334;29;20050;-69
2023/12/18 08:28:59;;;;;;;37.03;17.00;;;;;;;6.55;100.00;102762.78;4893825;29;20040;-70
2023/12/18 08:31:25;;;;;;;46.90;18.67;;;;;;;6.55;100.00;102754.78;4906182;29;20051;-70
2023/12/18 08:33:51;;;;;;;39.25;19.85;;;;;;;6.56;100.00;102753.78;4900787;29;20028;-70
2023/12/18 08:36:16;;;;;;;40.72;18.42;;;;;;;6.56;100.00;102748.44;4887954;29;20190;-70
2023/12/18 08:38:41;;;;;;;43.63;19.77;;;;;;;6.53;100.00;102740.88;4891454;29;20902;-70
2023/12/18 08:41:07;;;;;;;41.38;20.55;;;;;;;6.53;100.00;102744.34;4897937;29;20055;-71
2023/12/18 08:43:33;;;;;;;44.42;20.25;;;;;;;6.54;100.00;102739.84;4899216;29;20044;-71
2023/12/18 08:45:58;;;;;;;40.00;18.25;;;;;;;6.54;100.00;102735.34;4887399;29;20489;-71
2023/12/18 08:48:24;;;;;;;42.63;20.52;;;;;;;6.56;100.00;102727.16;4902714;29;20576;-70
2023/12/18 08:50:50;;;;;;;44.45;20.80;;;;;;;6.57;100.00;102734.97;4901824;29;20525;-71
2023/12/18 08:53:15;;;;;;;43.28;19.75;;;;;;;6.59;100.00;102732.09;4899565;29;20032;-71
2023/12/18 08:55:42;;;;;;;36.42;17.75;;;;;;;6.60;100.00;102728.44;4887516;29;20048;-70
2023/12/18 08:58:10;;;;;;;43.72;20.08;;;;;;;6.62;100.00;102729.03;4896678;29;20041;-70
2023/12/18 09:00:36;;;;;;;44.25;18.55;;;;;;;6.62;100.00;102747.69;4880408;29;20041;-70
2023/12/18 09:03:03;;;;;;;41.88;17.92;;;;;;;6.61;100.00;102748.69;4905353;29;20052;-70
2023/12/18 09:05:30;;;;;;;40.65;19.33;;;;;;;6.61;100.00;102743.38;4886231;29;20032;-71
2023/12/18 09:07:56;;;;;;;42.85;20.92;;;;;;;6.62;100.00;102746.84;4894434;29;20032;-71
2023/12/18 09:10:22;;;;;;;43.50;20.75;;;;;;;6.60;100.00;102744.41;4909442;29;20143;-71
2023/12/18 09:12:50;;;;;;;40.10;18.20;;;;;;;6.58;100.00;102741.13;4898366;29;20043;-71
2023/12/18 09:15:16;;;;;;;42.85;17.73;;;;;;;6.62;100.00;102749.53;4899343;29;20036;-70
2023/12/18 09:17:43;;;;;;;41.90;19.67;;;;;;;6.61;100.00;102746.03;4905112;29;20035;-71
2023/12/18 09:20:08;;;;;;;;;;;;;;;6.60;100.00;102744.41;4897927;29;20059;-70
2023/12/18 09:22:35;;;;;;;41.55;18.58;;;;;;;6.63;100.00;102735.19;4899026;29;20641;-71
2023/12/18 09:25:02;;;;;;;42.25;20.15;;;;;;;6.64;100.00;102740.34;4890455;29;20032;-70
2023/12/18 09:27:28;;;;;;;42.08;19.13;;;;;;;6.65;100.00;102735.84;4902707;29;20134;-70
2023/12/18 09:29:53;;;;;;;44.72;19.67;;;;;;;6.63;100.00;102733.34;4900527;29;20043;-70
2023/12/18 09:32:19;;;;;;;40.08;18.88;;;;;;;6.68;100.00;102740.75;4884525;29;20032;-69
2023/12/18 09:34:44;;;;;;;42.08;19.42;;;;;;;6.71;100.00;102741.22;4900067;29;20077;-71
2023/12/18 09:37:10;;;;;;;43.88;20.08;;;;;;;6.70;100.00;102739.53;4902813;29;20170;-70
2023/12/18 09:39:36;;;;;;;43.17;19.23;;;;;;;6.70;100.00;102736.88;4907464;29;20028;-70
2023/12/18 09:42:02;;;;;;;44.88;19.52;;;;;;;6.74;100.00;102729.34;4891908;29;20167;-70
2023/12/18 09:44:32;;;;;;;42.55;19.92;;;;;;;6.77;100.00;102724.47;4918605;29;20042;-72
2023/12/18 09:46:59;;;;;;;45.38;18.23;;;;;;;6.77;100.00;102724.47;4901399;29;20048;-71
2023/12/18 09:49:25;;;;;;;42.13;18.85;;;;;;;6.79;100.00;102719.75;4895412;29;20040;-71
2023/12/18 09:51:59;;;;;;;35.97;17.95;;;;;;;6.79;100.00;102722.41;4903457;29;20135;-70
2023/12/18 09:54:25;;;;;;;45.63;18.80;;;;;;;6.80;100.00;102716.06;4896603;29;20053;-70
2023/12/18 09:56:52;;;;;;;39.65;17.55;;;;;;;6.82;100.00;102714.00;4890953;29;20038;-71
2023/12/18 09:59:17;;;;;;;43.17;19.70;;;;;;;6.82;100.00;102718.53;4902137;29;20486;-71
2023/12/18 10:01:44;;;;;;;39.28;17.85;;;;;;;6.84;100.00;102711.16;4882391;29;20039;-71
2023/12/18 10:04:10;;;;;;;46.28;18.98;;;;;;;6.87;100.00;102704.63;4884933;29;20044;-71
2023/12/18 10:06:36;;;;;;;38.72;19.38;;;;;;;6.88;100.00;102715.06;4904847;29;20106;-71
2023/12/18 10:09:06;;;;;;;;;;;;;;;6.89;100.00;102706.06;4880404;29;20471;-71
2023/12/18 10:11:31;;;;;;;37.22;17.05;;;;;;;6.90;100.00;102704.22;4915665;29;19977;-71
2023/12/18 10:13:58;;;;;;;38.58;18.60;;;;;;;6.91;100.00;102695.19;4901129;29;20095;-71
2023/12/18 10:16:24;;;;;;;37.67;17.10;;;;;;;6.90;100.00;102691.72;4901893;29;20047;-71
2023/12/18 10:18:51;;;;;;;37.38;16.27;;;;;;;6.91;100.00;102696.06;4898988;29;20036;-71
2023/12/18 10:21:25;;;;;;;38.05;18.17;;;;;;;6.88;100.00;102699.09;4885068;29;20495;-71
2023/12/18 10:23:54;;;;;;;40.50;17.40;;;;;;;6.90;100.00;102693.56;4903483;29;20029;-70
2023/12/18 10:26:21;;;;;;;38.55;18.23;;;;;;;6.88;100.00;102683.13;4901953;29;20401;-70
2023/12/18 10:28:50;;;;;;;41.55;17.63;;;;;;;6.91;100.00;102690.72;4900184;29;20032;-70
2023/12/18 10:31:16;;;;;;;38.90;17.30;;;;;;;6.91;100.00;102682.72;4899294;29;20513;-70
2023/12/18 10:33:42;;;;;;;38.50;18.52;;;;;;;6.92;100.00;102683.56;4901316;29;20804;-70
2023/12/18 10:36:09;;;;;;;37.75;17.70;;;;;;;6.91;100.00;102684.56;4895685;29;20044;-71
2023/12/18 10:38:37;;;;;;;35.28;17.85;;;;;;;6.91;100.00;102679.22;4912392;29;20040;-72
2023/12/18 10:41:03;;;;;;;31.65;16.38;;;;;;;6.94;100.00;102668.19;4883627;29;20039;-71
2023/12/18 10:43:33;;;;;;;41.45;18.02;;;;;;;6.90;100.00;102666.94;4897397;29;20079;-71
2023/12/18 10:45:59;;;;;;;35.75;17.02;;;;;;;6.92;100.00;102656.91;4896932;29;20063;-71
2023/12/18 10:48:26;;;;;;;39.03;18.90;;;;;;;6.93;100.00;102659.38;4906576;29;20124;-71
2023/12/18 10:50:55;;;;;;;35.63;18.80;;;;;;;6.95;100.00;102656.50;4904506;29;20119;-72
2023/12/18 10:53:23;;;;;;;39.65;18.02;;;;;;;6.94;100.00;102649.53;4896492;29;20110;-71
2023/12/18 10:55:49;;;;;;;38.08;20.23;;;;;;;6.90;100.00;102648.28;4908623;29;20036;-71
2023/12/18 10:58:16;;;;;;;;;;;;;;;6.90;100.00;102656.28;4904264;29;20118;-71
2023/12/18 11:00:45;;;;;;;37.15;19.02;;;;;;;6.87;100.00;102646.03;4880554;29;20009;-71
2023/12/18 11:03:13;;;;;;;39.13;18.50;;;;;;;6.89;100.00;102652.78;4895113;29;20028;-71
2023/12/18 11:05:41;;;;;;;41.92;16.73;;;;;;;6.89;100.00;102649.31;4899095;29;20119;-72
2023/12/18 11:08:10;;;;;;;38.70;19.08;;;;;;;6.87;100.00;102648.69;4907913;29;20034;-72
2023/12/18 11:10:36;;;;;;;38.72;18.75;;;;;;;6.86;100.00;102647.06;4898022;29;20033;-71